createdAt,value
2022-12-15T09:24:03.447Z,99902.38
2022-12-15T09:26:32.759Z,99906.84
2022-12-15T09:28:59.675Z,99902.44
2022-12-15T09:31:29.131Z,99911.13
2022-12-15T09:33:57.897Z,99914.56
2022-12-15T09:36:24.828Z,99911.03
2022-12-15T09:38:52.205Z,99910.25
2022-12-15T09:41:24.462Z,99914.75
2022-12-15T09:43:53.839Z,99918.16
2022-12-15T09:46:41.939Z,99925.13
2022-12-15T09:49:23.942Z,99925.97
2022-12-15T09:52:16.034Z,99926.88
2022-12-15T09:54:43.953Z,99934.66
2022-12-15T09:57:15.585Z,99935.56
2022-12-15T10:00:03.490Z,99932.03
2022-12-15T10:02:47.361Z,99932.94
2022-12-15T10:06:14.351Z,99933.81
2022-12-15T10:08:43.440Z,99938.16
2022-12-15T10:11:41.069Z,99943.34
2022-12-15T10:14:21.706Z,99935.53
2022-12-15T10:17:07.440Z,99930.38
2022-12-15T10:19:39.620Z,99934.69
2022-12-15T10:22:14.018Z,99931.25
2022-12-15T10:27:42.582Z,99928.63
2022-12-15T10:30:13.008Z,99932.09
2022-12-15T10:32:51.735Z,99935.56
2022-12-15T10:35:18.396Z,99940.75
2022-12-15T10:37:45.083Z,99939.00
2022-12-15T10:40:18.526Z,99945.88
2022-12-15T10:42:50.861Z,99944.16
2022-12-15T10:45:40.621Z,99942.34
2022-12-15T10:48:19.041Z,99949.13
2022-12-15T10:50:45.987Z,99951.75
2022-12-15T10:53:40.047Z,99951.50
2022-12-15T10:56:08.565Z,99949.19
2022-12-15T10:58:51.822Z,99948.47
2022-12-15T11:01:26.022Z,99949.56
2022-12-15T11:03:54.247Z,99942.47
2022-12-15T11:06:27.288Z,99939.28
2022-12-15T11:08:57.166Z,99940.34
2022-12-15T11:12:06.040Z,99944.63
2022-12-15T11:14:47.862Z,99939.06
2022-12-15T11:17:22.616Z,99944.38
2022-12-15T11:23:23.862Z,99952.88
2022-12-15T11:26:00.479Z,99949.25
2022-12-15T11:28:42.388Z,99955.66
2022-12-15T11:31:24.140Z,99950.16
2022-12-15T11:33:54.752Z,99944.56
2022-12-15T11:36:40.908Z,99937.25
2022-12-15T11:39:42.705Z,99950.06
2022-12-15T11:42:24.646Z,99948.84
2022-12-15T11:45:03.812Z,99944.63
2022-12-15T11:47:46.063Z,99951.41
2022-12-15T11:50:27.501Z,99951.84
2022-12-15T11:52:54.041Z,99943.34
2022-12-15T11:55:42.419Z,99952.13
2022-12-15T11:58:29.516Z,99948.78
2022-12-15T12:01:13.465Z,99942.81
2022-12-15T12:04:17.605Z,99946.59
2022-12-15T12:07:16.578Z,99943.88
2022-12-15T12:10:12.993Z,99953.44
2022-12-15T12:12:50.592Z,99939.09
2022-12-15T12:15:31.000Z,99942.78
2022-12-15T12:18:22.562Z,99939.56
2022-12-15T12:21:12.161Z,99938.88
2022-12-15T12:23:52.246Z,99944.38
2022-12-15T12:26:43.984Z,99942.97
2022-12-15T12:29:25.027Z,99941.41
2022-12-15T12:31:59.058Z,99942.19
2022-12-15T12:34:30.607Z,99945.88
2022-12-15T12:37:05.400Z,99953.84
2022-12-15T12:39:32.939Z,99955.13
2022-12-15T12:42:10.950Z,99953.69
2022-12-15T12:44:39.052Z,99945.97
2022-12-15T12:47:14.004Z,99953.47
2022-12-15T12:49:58.792Z,99956.28
2022-12-15T12:52:30.027Z,99948.81
2022-12-15T12:55:21.223Z,99940.75
2022-12-15T12:57:47.938Z,99948.28
2022-12-15T13:00:20.274Z,99945.09
2022-12-15T13:02:54.401Z,99950.88
2022-12-15T13:05:34.682Z,99948.78
2022-12-15T13:08:07.924Z,99951.25
2022-12-15T13:10:37.564Z,99952.53
2022-12-15T13:13:29.333Z,99950.06
2022-12-15T13:16:06.476Z,99958.69
2022-12-15T13:19:04.610Z,99957.38
2022-12-15T13:21:43.665Z,99957.97
2022-12-15T13:24:33.281Z,99951.69
2022-12-15T13:27:08.758Z,99950.66
2022-12-15T13:29:54.184Z,99953.38
2022-12-15T13:32:33.179Z,99967.56
2022-12-15T13:35:12.324Z,99951.88
2022-12-15T13:37:49.022Z,99952.09
2022-12-15T13:40:26.387Z,99945.75
2022-12-15T13:43:21.844Z,99952.09
2022-12-15T13:45:53.516Z,99947.06
2022-12-15T13:48:28.469Z,99951.75
2022-12-15T13:51:31.838Z,99943.75
2022-12-15T13:54:02.798Z,99948.63
2022-12-15T13:56:44.797Z,99953.16
2022-12-15T13:59:42.662Z,99952.63
2022-12-15T14:02:26.137Z,99959.25
2022-12-15T14:05:18.976Z,99959.22
2022-12-15T14:07:54.143Z,99955.56
2022-12-15T14:10:22.793Z,99954.94
2022-12-15T14:12:52.018Z,99956.03
2022-12-15T14:15:26.998Z,99953.91
2022-12-15T14:17:56.466Z,99959.59
2022-12-15T14:20:27.327Z,99956.19
2022-12-15T14:22:54.984Z,99958.69
2022-12-15T14:25:22.950Z,99955.16
2022-12-15T14:27:50.947Z,99951.94
2022-12-15T14:30:29.500Z,99948.53
2022-12-15T14:33:03.314Z,99946.88
2022-12-15T14:35:44.139Z,99946.94
2022-12-15T14:38:42.712Z,99956.56
2022-12-15T14:41:19.675Z,99948.84
2022-12-15T14:43:47.259Z,99953.16
2022-12-15T14:46:34.480Z,99951.50
2022-12-15T14:49:04.321Z,99952.47
2022-12-15T14:51:39.274Z,99954.19
2022-12-15T14:54:06.052Z,99951.56
2022-12-15T14:56:32.596Z,99949.88
2022-12-15T14:59:20.208Z,99953.25
2022-12-15T15:01:59.665Z,99950.75
2022-12-15T15:03:10.218Z,99945.81
2022-12-15T15:04:35.476Z,99954.31
2022-12-15T15:07:05.232Z,99950.00
2022-12-15T15:09:42.611Z,99962.03
2022-12-15T15:12:22.086Z,99956.91
2022-12-15T15:14:55.788Z,99949.16
2022-12-15T15:17:43.721Z,99942.97
2022-12-15T15:20:22.040Z,99936.88
2022-12-15T15:23:18.429Z,99955.88
2022-12-15T15:26:06.663Z,99948.94
2022-12-15T15:28:37.788Z,99961.06
2022-12-15T15:31:27.511Z,99954.16
2022-12-15T15:33:58.567Z,99949.91
2022-12-15T15:36:34.872Z,99943.91
2022-12-15T15:39:03.930Z,99949.16
2022-12-15T15:41:32.616Z,99956.00
2022-12-15T15:44:01.948Z,99959.53
2022-12-15T15:46:31.502Z,99951.81
2022-12-15T15:49:01.719Z,99949.25
2022-12-15T15:51:30.392Z,99951.09
2022-12-15T15:54:00.497Z,99945.91
2022-12-15T15:56:28.530Z,99954.56
2022-12-15T15:58:55.096Z,99959.78
2022-12-15T16:01:21.860Z,99970.13
2022-12-15T16:03:48.816Z,99962.34
2022-12-15T16:06:21.789Z,99962.31
2022-12-15T16:08:53.847Z,99970.91
2022-12-15T16:11:22.382Z,99969.06
2022-12-15T16:13:48.930Z,99970.84
2022-12-15T16:16:19.893Z,99962.28
2022-12-15T16:18:46.567Z,99963.13
2022-12-15T16:21:14.647Z,99970.84
2022-12-15T16:23:44.097Z,99979.44
2022-12-15T16:26:23.768Z,99969.88
2022-12-15T16:28:50.396Z,99980.19
2022-12-15T16:31:37.281Z,99976.81
2022-12-15T16:34:07.485Z,99976.75
2022-12-15T16:36:35.101Z,99987.06
2022-12-15T16:39:01.961Z,99990.53
2022-12-15T16:41:28.640Z,99987.94
2022-12-15T16:43:55.209Z,99986.88
2022-12-15T16:46:21.928Z,99983.31
2022-12-15T16:48:48.733Z,99997.84
2022-12-15T16:51:31.264Z,99992.09
2022-12-15T16:53:58.039Z,99993.75
2022-12-15T16:56:24.613Z,99997.19
2022-12-15T16:58:57.549Z,100004.69
2022-12-15T17:01:29.527Z,100006.22
2022-12-15T17:03:57.120Z,100024.47
2022-12-15T17:06:23.770Z,100026.66
2022-12-15T17:08:52.864Z,100036.16
2022-12-15T17:11:26.835Z,100032.94
2022-12-15T17:13:56.624Z,100038.34
2022-12-15T17:16:25.952Z,100031.53
2022-12-15T17:18:52.747Z,100042.69
2022-12-15T17:21:30.340Z,100040.84
2022-12-15T17:24:03.950Z,100039.44
2022-12-15T17:26:35.303Z,100036.75
2022-12-15T17:29:14.737Z,100030.03
2022-12-15T17:31:41.409Z,100035.25
2022-12-15T17:34:32.524Z,100037.09
2022-12-15T17:37:02.571Z,100043.91
2022-12-15T17:39:30.311Z,100045.47
2022-12-15T17:42:01.520Z,100043.91
2022-12-15T17:44:36.245Z,100040.50
2022-12-15T17:47:05.638Z,100037.06
2022-12-15T17:49:35.994Z,100038.78
2022-12-15T17:52:07.109Z,100038.94
2022-12-15T17:54:33.863Z,100042.47
2022-12-15T17:57:00.407Z,100049.41
2022-12-15T17:59:27.150Z,100053.63
2022-12-15T18:01:56.919Z,100046.72
2022-12-15T18:04:23.963Z,100047.69
2022-12-15T18:06:52.011Z,100056.19
2022-12-15T18:09:22.433Z,100043.06
2022-12-15T18:11:49.397Z,100043.19
2022-12-15T18:14:18.399Z,100046.66
2022-12-15T18:16:46.257Z,100047.47
2022-12-15T18:19:13.308Z,100054.97
2022-12-15T18:21:40.907Z,100054.91
2022-12-15T18:24:16.954Z,100050.66
2022-12-15T18:26:43.862Z,100055.81
2022-12-15T18:29:17.859Z,100046.44
2022-12-15T18:31:47.081Z,100056.06
2022-12-15T18:34:17.393Z,100056.97
2022-12-15T18:36:44.963Z,100064.63
2022-12-15T18:39:26.307Z,100070.56
2022-12-15T18:41:56.222Z,100071.25
2022-12-15T18:44:24.550Z,100078.94
2022-12-15T18:46:51.298Z,100078.03
2022-12-15T18:49:18.686Z,100089.84
2022-12-15T18:51:46.931Z,100085.22
2022-12-15T18:54:19.367Z,100086.09
2022-12-15T18:56:46.026Z,100089.50
2022-12-15T18:59:15.802Z,100081.81
2022-12-15T19:01:46.837Z,100072.34
2022-12-15T19:04:14.277Z,100068.84
2022-12-15T19:06:42.113Z,100068.75
2022-12-15T19:09:16.788Z,100070.50
2022-12-15T19:12:06.349Z,100082.56
2022-12-15T19:14:50.714Z,100096.06
2022-12-15T19:17:38.681Z,100100.59
2022-12-15T19:20:33.976Z,100106.50
2022-12-15T19:23:01.134Z,100097.34
2022-12-15T19:25:29.392Z,100089.63
2022-12-15T19:28:01.352Z,100087.69
2022-12-15T19:30:30.352Z,100090.25
2022-12-15T19:32:57.519Z,100092.81
2022-12-15T19:35:25.829Z,100089.47
2022-12-15T19:37:55.217Z,100082.63
2022-12-15T19:40:27.670Z,100077.28
2022-12-15T19:42:55.461Z,100082.34
2022-12-15T19:45:24.751Z,100087.34
2022-12-15T19:47:51.506Z,100086.59
2022-12-15T19:50:24.038Z,100087.38
2022-12-15T19:52:56.256Z,100083.72
2022-12-15T19:55:27.099Z,100085.56
2022-12-15T19:57:53.712Z,100083.91
2022-12-15T20:00:22.244Z,100075.25
2022-12-15T20:02:51.584Z,100079.59
2022-12-15T20:05:19.533Z,100091.50
2022-12-15T20:07:47.237Z,100091.53
2022-12-15T20:10:26.009Z,100077.72
2022-12-15T20:12:56.601Z,100093.50
2022-12-15T20:15:25.302Z,100091.84
2022-12-15T20:17:58.737Z,100081.44
2022-12-15T20:20:28.292Z,100088.44
2022-12-15T20:22:57.629Z,100091.44
2022-12-15T20:25:28.466Z,100087.38
2022-12-15T20:27:55.413Z,100092.19
2022-12-15T20:30:25.566Z,100097.34
2022-12-15T20:32:52.760Z,100091.81
2022-12-15T20:35:21.788Z,100092.94
2022-12-15T20:37:49.237Z,100100.50
2022-12-15T20:40:25.898Z,100103.59
2022-12-15T20:42:53.281Z,100092.94
2022-12-15T20:45:22.889Z,100087.75
2022-12-15T20:47:52.057Z,100084.38
2022-12-15T20:50:23.803Z,100092.91
2022-12-15T20:52:50.599Z,100101.34
2022-12-15T20:55:18.957Z,100089.53
2022-12-15T20:57:45.673Z,100093.25
2022-12-15T21:00:13.425Z,100095.56
2022-12-15T21:02:40.679Z,100093.44
2022-12-15T21:05:08.398Z,100102.50
2022-12-15T21:07:35.727Z,100095.50
2022-12-15T21:10:02.292Z,100088.28
2022-12-15T21:12:29.009Z,100092.25
2022-12-15T21:14:55.623Z,100098.78
2022-12-15T21:17:25.653Z,100092.19
2022-12-15T21:19:52.272Z,100102.72
2022-12-15T21:22:22.491Z,100103.28
2022-12-15T21:24:51.468Z,100101.47
2022-12-15T21:27:18.893Z,100109.69
2022-12-15T21:29:52.037Z,100108.06
2022-12-15T21:32:20.040Z,100101.88
2022-12-15T21:34:46.633Z,100096.66
2022-12-15T21:37:31.160Z,100094.69
2022-12-15T21:39:59.413Z,100102.38
2022-12-15T21:42:26.359Z,100095.34
2022-12-15T21:44:52.980Z,100101.09
2022-12-15T21:47:47.901Z,100104.41
2022-12-15T21:50:16.068Z,100119.47
2022-12-15T21:52:43.917Z,100118.13
2022-12-15T21:55:23.734Z,100112.34
2022-12-15T21:57:50.409Z,100115.31
2022-12-15T22:00:22.170Z,100113.84
2022-12-15T22:02:51.014Z,100117.91
2022-12-15T22:05:19.195Z,100116.44
2022-12-15T22:07:46.383Z,100124.41
2022-12-15T22:10:13.657Z,100125.75
2022-12-15T22:12:43.154Z,100123.81
2022-12-15T22:15:23.499Z,100124.22
2022-12-15T22:17:51.113Z,100132.81
2022-12-15T22:20:19.036Z,100131.34
2022-12-15T22:22:46.537Z,100124.31
2022-12-15T22:25:25.573Z,100134.19
2022-12-15T22:27:52.852Z,100128.22
2022-12-15T22:30:30.727Z,100125.94
2022-12-15T22:32:57.443Z,100137.97
2022-12-15T22:35:26.485Z,100131.09
2022-12-15T22:37:59.100Z,100131.31
2022-12-15T22:40:26.395Z,100128.47
2022-12-15T22:42:57.084Z,100134.19
2022-12-15T22:45:24.248Z,100135.81
2022-12-15T22:47:52.708Z,100133.72
2022-12-15T22:50:25.013Z,100131.91
2022-12-15T22:52:51.986Z,100147.22
2022-12-15T22:55:20.562Z,100143.03
2022-12-15T22:57:56.635Z,100143.72
2022-12-15T23:00:23.349Z,100151.28
2022-12-15T23:02:50.137Z,100140.69
2022-12-15T23:05:18.988Z,100148.38
2022-12-15T23:07:45.626Z,100162.69
2022-12-15T23:10:34.889Z,100155.00
2022-12-15T23:13:01.656Z,100148.88
2022-12-15T23:15:47.634Z,100150.97
2022-12-15T23:18:14.672Z,100147.69
2022-12-15T23:20:41.800Z,100145.00
2022-12-15T23:23:12.019Z,100142.81
2022-12-15T23:25:38.796Z,100149.00
2022-12-15T23:28:05.493Z,100143.31
2022-12-15T23:30:32.425Z,100143.25
2022-12-15T23:32:59.054Z,100143.28
2022-12-15T23:35:26.086Z,100158.03
2022-12-15T23:37:52.752Z,100156.66
2022-12-15T23:40:22.294Z,100140.09
2022-12-15T23:42:50.553Z,100143.31
2022-12-15T23:45:18.158Z,100148.63
2022-12-15T23:47:44.940Z,100146.50
2022-12-15T23:50:11.939Z,100160.97
2022-12-15T23:52:38.597Z,100149.00
2022-12-15T23:55:08.009Z,100153.22
2022-12-15T23:57:35.141Z,100151.50
